Terminal Aerodrome Forecast
Issued by NWS

Home | Current Version | Previous Version | Graphics & Text | Print | Product List | Glossary On
Versions: 1 2 3 4 5 6 7 8 9 10 11 12 13 14 15 16 17 18 19 20
000
FTUS43 KICT 071642 AAD
TAFRSL
TAF AMD
KRSL 071642Z 0717/0812 01017KT 3SM -SN SCT015 OVC028
      TEMPO 0717/0721 1 1/2SM -SN OVC013
     FM072100 35013KT P6SM OVC022
     FM080000 32009KT P6SM BKN035
     FM080300 31009KT P6SM SCT040=

USA.gov is the U.S. government's official web portal to all federal, state and local government web resources and services.